sensor_id;sensor_type;location;lat;lon;timestamp;P1;durP1;ratioP1;P2;durP2;ratioP2
20619;SDS011;10469;42.720;23.252;2023-02-15T00:01:33;51.70;;;30.27;;
20619;SDS011;10469;42.720;23.252;2023-02-15T00:03:59;56.47;;;31.67;;
20619;SDS011;10469;42.720;23.252;2023-02-15T00:06:24;53.38;;;30.90;;
20619;SDS011;10469;42.720;23.252;2023-02-15T00:08:50;56.10;;;32.22;;
20619;SDS011;10469;42.720;23.252;2023-02-15T00:11:17;53.50;;;30.65;;
20619;SDS011;10469;42.720;23.252;2023-02-15T00:14:08;51.20;;;30.50;;
20619;SDS011;10469;42.720;23.252;2023-02-15T00:16:52;51.13;;;30.50;;
20619;SDS011;10469;42.720;23.252;2023-02-15T00:19:20;53.28;;;31.58;;
20619;SDS011;10469;42.720;23.252;2023-02-15T00:21:46;53.55;;;31.15;;
20619;SDS011;10469;42.720;23.252;2023-02-15T00:24:13;50.70;;;30.52;;
20619;SDS011;10469;42.720;23.252;2023-02-15T00:26:41;52.53;;;29.92;;
20619;SDS011;10469;42.720;23.252;2023-02-15T00:29:08;50.72;;;30.42;;
20619;SDS011;10469;42.720;23.252;2023-02-15T00:31:35;50.97;;;31.35;;
20619;SDS011;10469;42.720;23.252;2023-02-15T00:34:04;49.08;;;28.92;;
20619;SDS011;10469;42.720;23.252;2023-02-15T00:36:30;52.42;;;30.38;;
20619;SDS011;10469;42.720;23.252;2023-02-15T00:38:56;51.88;;;29.42;;
20619;SDS011;10469;42.720;23.252;2023-02-15T00:41:21;52.25;;;29.88;;
20619;SDS011;10469;42.720;23.252;2023-02-15T00:43:47;49.45;;;28.90;;
20619;SDS011;10469;42.720;23.252;2023-02-15T00:46:12;53.03;;;30.95;;
20619;SDS011;10469;42.720;23.252;2023-02-15T00:48:38;51.58;;;29.98;;
20619;SDS011;10469;42.720;23.252;2023-02-15T00:51:03;51.00;;;29.25;;
20619;SDS011;10469;42.720;23.252;2023-02-15T00:53:29;49.28;;;28.95;;
20619;SDS011;10469;42.720;23.252;2023-02-15T00:55:55;49.65;;;28.60;;
20619;SDS011;10469;42.720;23.252;2023-02-15T00:58:21;51.15;;;28.80;;
20619;SDS011;10469;42.720;23.252;2023-02-15T01:00:46;50.20;;;30.60;;
20619;SDS011;10469;42.720;23.252;2023-02-15T01:03:13;50.58;;;29.30;;
20619;SDS011;10469;42.720;23.252;2023-02-15T01:05:40;54.03;;;30.90;;
20619;SDS011;10469;42.720;23.252;2023-02-15T01:08:06;47.35;;;27.85;;
20619;SDS011;10469;42.720;23.252;2023-02-15T01:10:31;51.90;;;28.40;;
20619;SDS011;10469;42.720;23.252;2023-02-15T01:12:58;45.75;;;28.23;;
20619;SDS011;10469;42.720;23.252;2023-02-15T01:15:24;47.78;;;28.42;;
20619;SDS011;10469;42.720;23.252;2023-02-15T01:17:49;48.72;;;30.17;;
20619;SDS011;10469;42.720;23.252;2023-02-15T01:20:18;47.83;;;28.45;;
20619;SDS011;10469;42.720;23.252;2023-02-15T01:22:44;49.40;;;29.80;;
20619;SDS011;10469;42.720;23.252;2023-02-15T01:25:09;47.92;;;29.75;;
20619;SDS011;10469;42.720;23.252;2023-02-15T01:27:35;48.95;;;29.63;;
20619;SDS011;10469;42.720;23.252;2023-02-15T01:30:00;48.88;;;28.75;;
20619;SDS011;10469;42.720;23.252;2023-02-15T01:32:26;47.45;;;29.05;;
20619;SDS011;10469;42.720;23.252;2023-02-15T01:34:52;46.92;;;28.83;;
20619;SDS011;10469;42.720;23.252;2023-02-15T01:37:17;44.58;;;28.20;;
20619;SDS011;10469;42.720;23.252;2023-02-15T01:39:43;48.72;;;28.65;;
20619;SDS011;10469;42.720;23.252;2023-02-15T01:42:11;45.17;;;28.25;;
20619;SDS011;10469;42.720;23.252;2023-02-15T01:44:53;45.17;;;27.00;;
20619;SDS011;10469;42.720;23.252;2023-02-15T01:53:02;48.05;;;28.02;;
20619;SDS011;10469;42.720;23.252;2023-02-15T01:55:33;51.80;;;28.30;;
20619;SDS011;10469;42.720;23.252;2023-02-15T01:58:03;46.88;;;27.13;;
20619;SDS011;10469;42.720;23.252;2023-02-15T02:00:29;51.90;;;29.17;;
20619;SDS011;10469;42.720;23.252;2023-02-15T02:02:55;45.85;;;27.95;;
20619;SDS011;10469;42.720;23.252;2023-02-15T02:05:22;46.80;;;28.35;;
20619;SDS011;10469;42.720;23.252;2023-02-15T02:07:48;45.83;;;28.63;;
20619;SDS011;10469;42.720;23.252;2023-02-15T02:10:18;45.15;;;28.00;;
20619;SDS011;10469;42.720;23.252;2023-02-15T02:12:45;48.53;;;27.83;;
20619;SDS011;10469;42.720;23.252;2023-02-15T02:15:15;45.47;;;27.67;;
20619;SDS011;10469;42.720;23.252;2023-02-15T02:36:40;44.95;;;26.52;;
20619;SDS011;10469;42.720;23.252;2023-02-15T02:39:36;48.45;;;28.52;;
20619;SDS011;10469;42.720;23.252;2023-02-15T02:45:05;48.72;;;26.73;;
20619;SDS011;10469;42.720;23.252;2023-02-15T02:50:16;48.00;;;26.02;;
20619;SDS011;10469;42.720;23.252;2023-02-15T02:52:50;47.33;;;27.05;;
20619;SDS011;10469;42.720;23.252;2023-02-15T02:58:02;47.58;;;28.13;;
20619;SDS011;10469;42.720;23.252;2023-02-15T03:00:52;37.90;;;23.35;;
20619;SDS011;10469;42.720;23.252;2023-02-15T03:03:25;45.47;;;26.50;;
20619;SDS011;10469;42.720;23.252;2023-02-15T03:05:56;45.75;;;27.58;;
20619;SDS011;10469;42.720;23.252;2023-02-15T03:08:26;45.83;;;26.75;;
20619;SDS011;10469;42.720;23.252;2023-02-15T03:10:59;43.00;;;26.30;;
20619;SDS011;10469;42.720;23.252;2023-02-15T03:13:26;41.95;;;25.65;;
20619;SDS011;10469;42.720;23.252;2023-02-15T03:15:53;45.47;;;24.98;;
20619;SDS011;10469;42.720;23.252;2023-02-15T03:18:42;42.92;;;24.90;;
20619;SDS011;10469;42.720;23.252;2023-02-15T03:21:17;43.30;;;25.90;;
20619;SDS011;10469;42.720;23.252;2023-02-15T03:23:48;38.33;;;25.10;;
20619;SDS011;10469;42.720;23.252;2023-02-15T03:26:17;43.47;;;26.15;;
20619;SDS011;10469;42.720;23.252;2023-02-15T03:28:45;42.28;;;25.42;;
20619;SDS011;10469;42.720;23.252;2023-02-15T03:31:15;44.97;;;26.23;;
20619;SDS011;10469;42.720;23.252;2023-02-15T03:33:52;40.45;;;25.08;;
20619;SDS011;10469;42.720;23.252;2023-02-15T03:39:42;38.50;;;24.05;;
20619;SDS011;10469;42.720;23.252;2023-02-15T03:42:26;39.83;;;24.30;;
20619;SDS011;10469;42.720;23.252;2023-02-15T03:44:42;41.70;;;24.92;;
20619;SDS011;10469;42.720;23.252;2023-02-15T03:47:19;41.85;;;25.45;;
20619;SDS011;10469;42.720;23.252;2023-02-15T03:49:50;41.30;;;25.05;;
20619;SDS011;10469;42.720;23.252;2023-02-15T03:52:21;38.65;;;24.80;;
20619;SDS011;10469;42.720;23.252;2023-02-15T03:54:49;40.95;;;24.52;;
20619;SDS011;10469;42.720;23.252;2023-02-15T03:57:18;42.05;;;24.33;;
20619;SDS011;10469;42.720;23.252;2023-02-15T04:00:16;39.40;;;25.27;;
20619;SDS011;10469;42.720;23.252;2023-02-15T04:03:17;40.80;;;25.25;;
20619;SDS011;10469;42.720;23.252;2023-02-15T04:05:45;47.20;;;26.67;;
20619;SDS011;10469;42.720;23.252;2023-02-15T04:08:11;41.08;;;26.05;;
20619;SDS011;10469;42.720;23.252;2023-02-15T04:10:38;40.17;;;25.65;;
20619;SDS011;10469;42.720;23.252;2023-02-15T04:13:29;41.40;;;25.00;;
20619;SDS011;10469;42.720;23.252;2023-02-15T04:15:56;43.67;;;24.67;;
20619;SDS011;10469;42.720;23.252;2023-02-15T04:18:35;41.75;;;24.88;;
20619;SDS011;10469;42.720;23.252;2023-02-15T04:21:24;45.08;;;24.83;;
20619;SDS011;10469;42.720;23.252;2023-02-15T04:24:09;46.72;;;25.98;;
20619;SDS011;10469;42.720;23.252;2023-02-15T04:26:54;43.35;;;24.73;;
20619;SDS011;10469;42.720;23.252;2023-02-15T04:29:23;42.15;;;26.33;;
20619;SDS011;10469;42.720;23.252;2023-02-15T04:31:50;46.15;;;26.00;;
20619;SDS011;10469;42.720;23.252;2023-02-15T04:34:16;45.58;;;25.42;;
20619;SDS011;10469;42.720;23.252;2023-02-15T04:36:42;43.78;;;25.80;;
20619;SDS011;10469;42.720;23.252;2023-02-15T04:39:08;41.88;;;25.27;;
20619;SDS011;10469;42.720;23.252;2023-02-15T04:41:34;45.60;;;25.33;;
20619;SDS011;10469;42.720;23.252;2023-02-15T04:44:00;41.80;;;24.70;;
20619;SDS011;10469;42.720;23.252;2023-02-15T04:46:26;42.72;;;25.70;;
20619;SDS011;10469;42.720;23.252;2023-02-15T04:48:52;46.28;;;26.70;;
20619;SDS011;10469;42.720;23.252;2023-02-15T04:51:18;42.72;;;25.75;;
20619;SDS011;10469;42.720;23.252;2023-02-15T04:53:44;45.35;;;25.73;;
20619;SDS011;10469;42.720;23.252;2023-02-15T04:56:09;42.85;;;25.83;;
20619;SDS011;10469;42.720;23.252;2023-02-15T04:58:35;43.10;;;25.08;;
20619;SDS011;10469;42.720;23.252;2023-02-15T05:01:02;44.63;;;25.38;;
20619;SDS011;10469;42.720;23.252;2023-02-15T05:03:28;40.25;;;24.88;;
20619;SDS011;10469;42.720;23.252;2023-02-15T05:05:54;42.75;;;25.25;;
20619;SDS011;10469;42.720;23.252;2023-02-15T05:08:19;45.28;;;25.75;;
20619;SDS011;10469;42.720;23.252;2023-02-15T05:10:47;44.20;;;24.88;;
20619;SDS011;10469;42.720;23.252;2023-02-15T05:13:13;45.83;;;25.73;;
20619;SDS011;10469;42.720;23.252;2023-02-15T05:15:39;40.17;;;24.35;;
20619;SDS011;10469;42.720;23.252;2023-02-15T05:18:05;45.97;;;26.42;;
20619;SDS011;10469;42.720;23.252;2023-02-15T05:20:32;44.35;;;25.75;;
20619;SDS011;10469;42.720;23.252;2023-02-15T05:22:58;38.85;;;24.40;;
20619;SDS011;10469;42.720;23.252;2023-02-15T05:25:23;43.08;;;25.33;;
20619;SDS011;10469;42.720;23.252;2023-02-15T05:28:10;42.22;;;24.95;;
20619;SDS011;10469;42.720;23.252;2023-02-15T05:30:45;43.45;;;26.17;;
20619;SDS011;10469;42.720;23.252;2023-02-15T05:33:14;44.22;;;24.50;;
20619;SDS011;10469;42.720;23.252;2023-02-15T05:35:39;47.28;;;26.10;;
20619;SDS011;10469;42.720;23.252;2023-02-15T05:38:05;43.65;;;24.98;;
20619;SDS011;10469;42.720;23.252;2023-02-15T05:40:30;42.83;;;26.08;;
20619;SDS011;10469;42.720;23.252;2023-02-15T05:42:56;41.38;;;25.35;;
20619;SDS011;10469;42.720;23.252;2023-02-15T05:45:21;41.47;;;24.80;;
20619;SDS011;10469;42.720;23.252;2023-02-15T05:47:47;42.10;;;25.35;;
20619;SDS011;10469;42.720;23.252;2023-02-15T05:50:12;40.88;;;23.98;;
20619;SDS011;10469;42.720;23.252;2023-02-15T05:52:38;41.90;;;23.27;;
20619;SDS011;10469;42.720;23.252;2023-02-15T05:55:04;43.25;;;24.90;;
20619;SDS011;10469;42.720;23.252;2023-02-15T05:57:30;44.78;;;24.95;;
20619;SDS011;10469;42.720;23.252;2023-02-15T05:59:55;42.22;;;24.63;;
20619;SDS011;10469;42.720;23.252;2023-02-15T06:02:22;37.95;;;25.75;;
20619;SDS011;10469;42.720;23.252;2023-02-15T06:04:48;42.65;;;24.58;;
20619;SDS011;10469;42.720;23.252;2023-02-15T06:07:13;41.45;;;25.33;;
20619;SDS011;10469;42.720;23.252;2023-02-15T06:09:39;36.58;;;23.15;;
20619;SDS011;10469;42.720;23.252;2023-02-15T06:12:04;36.35;;;22.75;;
20619;SDS011;10469;42.720;23.252;2023-02-15T06:14:32;42.53;;;23.98;;
20619;SDS011;10469;42.720;23.252;2023-02-15T06:16:58;42.63;;;24.38;;
20619;SDS011;10469;42.720;23.252;2023-02-15T06:19:23;41.97;;;25.38;;
20619;SDS011;10469;42.720;23.252;2023-02-15T06:21:49;38.20;;;23.90;;
20619;SDS011;10469;42.720;23.252;2023-02-15T06:24:14;39.67;;;24.13;;
20619;SDS011;10469;42.720;23.252;2023-02-15T06:26:40;51.42;;;24.25;;
20619;SDS011;10469;42.720;23.252;2023-02-15T06:29:05;42.35;;;25.00;;
20619;SDS011;10469;42.720;23.252;2023-02-15T06:31:31;42.25;;;23.77;;
20619;SDS011;10469;42.720;23.252;2023-02-15T06:33:57;40.53;;;25.27;;
20619;SDS011;10469;42.720;23.252;2023-02-15T06:36:28;39.45;;;24.10;;
20619;SDS011;10469;42.720;23.252;2023-02-15T06:38:54;42.05;;;24.50;;
20619;SDS011;10469;42.720;23.252;2023-02-15T06:41:20;44.97;;;24.50;;
20619;SDS011;10469;42.720;23.252;2023-02-15T06:43:46;40.42;;;24.88;;
20619;SDS011;10469;42.720;23.252;2023-02-15T06:46:11;38.10;;;23.52;;
20619;SDS011;10469;42.720;23.252;2023-02-15T06:48:37;41.35;;;23.58;;
20619;SDS011;10469;42.720;23.252;2023-02-15T06:51:02;35.65;;;22.67;;
20619;SDS011;10469;42.720;23.252;2023-02-15T06:53:28;37.67;;;22.48;;
20619;SDS011;10469;42.720;23.252;2023-02-15T06:55:59;37.03;;;22.23;;
20619;SDS011;10469;42.720;23.252;2023-02-15T06:58:27;37.72;;;22.17;;
20619;SDS011;10469;42.720;23.252;2023-02-15T07:00:53;38.75;;;23.58;;
20619;SDS011;10469;42.720;23.252;2023-02-15T07:03:18;38.20;;;22.60;;
20619;SDS011;10469;42.720;23.252;2023-02-15T07:05:44;41.35;;;23.75;;
20619;SDS011;10469;42.720;23.252;2023-02-15T07:08:10;39.60;;;23.98;;
20619;SDS011;10469;42.720;23.252;2023-02-15T07:10:36;43.22;;;26.27;;
20619;SDS011;10469;42.720;23.252;2023-02-15T07:13:01;33.53;;;21.55;;
20619;SDS011;10469;42.720;23.252;2023-02-15T07:15:27;35.15;;;20.92;;
20619;SDS011;10469;42.720;23.252;2023-02-15T07:17:52;37.08;;;22.67;;
20619;SDS011;10469;42.720;23.252;2023-02-15T07:20:19;33.95;;;21.63;;
20619;SDS011;10469;42.720;23.252;2023-02-15T07:22:46;32.10;;;21.10;;
20619;SDS011;10469;42.720;23.252;2023-02-15T07:25:12;37.78;;;21.40;;
20619;SDS011;10469;42.720;23.252;2023-02-15T07:27:38;32.03;;;20.35;;
20619;SDS011;10469;42.720;23.252;2023-02-15T07:30:06;40.58;;;18.63;;
20619;SDS011;10469;42.720;23.252;2023-02-15T07:32:34;32.35;;;20.38;;
20619;SDS011;10469;42.720;23.252;2023-02-15T07:35:00;30.98;;;19.25;;
20619;SDS011;10469;42.720;23.252;2023-02-15T07:37:25;33.55;;;21.50;;
20619;SDS011;10469;42.720;23.252;2023-02-15T07:39:52;36.65;;;19.75;;
20619;SDS011;10469;42.720;23.252;2023-02-15T07:42:17;31.15;;;19.52;;
20619;SDS011;10469;42.720;23.252;2023-02-15T07:44:44;31.85;;;20.27;;
20619;SDS011;10469;42.720;23.252;2023-02-15T07:47:10;34.20;;;19.73;;
20619;SDS011;10469;42.720;23.252;2023-02-15T07:49:37;34.80;;;20.88;;
20619;SDS011;10469;42.720;23.252;2023-02-15T07:52:03;33.05;;;20.67;;
20619;SDS011;10469;42.720;23.252;2023-02-15T07:54:29;32.95;;;20.10;;
20619;SDS011;10469;42.720;23.252;2023-02-15T07:56:54;34.25;;;19.42;;
20619;SDS011;10469;42.720;23.252;2023-02-15T07:59:20;32.15;;;18.48;;
20619;SDS011;10469;42.720;23.252;2023-02-15T08:01:45;28.63;;;18.17;;
20619;SDS011;10469;42.720;23.252;2023-02-15T08:04:11;31.15;;;19.92;;
20619;SDS011;10469;42.720;23.252;2023-02-15T08:06:36;32.13;;;19.13;;
20619;SDS011;10469;42.720;23.252;2023-02-15T08:09:06;30.83;;;18.83;;
20619;SDS011;10469;42.720;23.252;2023-02-15T08:11:34;28.80;;;17.67;;
20619;SDS011;10469;42.720;23.252;2023-02-15T08:14:02;29.33;;;17.77;;
20619;SDS011;10469;42.720;23.252;2023-02-15T08:16:30;34.83;;;19.40;;
20619;SDS011;10469;42.720;23.252;2023-02-15T08:19:02;28.55;;;17.65;;
20619;SDS011;10469;42.720;23.252;2023-02-15T08:21:33;30.70;;;19.35;;
20619;SDS011;10469;42.720;23.252;2023-02-15T08:23:59;35.33;;;22.17;;
20619;SDS011;10469;42.720;23.252;2023-02-15T08:26:26;33.70;;;18.27;;
20619;SDS011;10469;42.720;23.252;2023-02-15T08:28:52;31.48;;;17.88;;
20619;SDS011;10469;42.720;23.252;2023-02-15T08:31:24;32.55;;;19.42;;
20619;SDS011;10469;42.720;23.252;2023-02-15T08:33:51;33.15;;;19.38;;
20619;SDS011;10469;42.720;23.252;2023-02-15T08:36:22;33.95;;;18.80;;
20619;SDS011;10469;42.720;23.252;2023-02-15T08:38:49;28.20;;;18.20;;
20619;SDS011;10469;42.720;23.252;2023-02-15T08:43:48;36.55;;;18.60;;
20619;SDS011;10469;42.720;23.252;2023-02-15T08:46:16;46.03;;;21.00;;
20619;SDS011;10469;42.720;23.252;2023-02-15T08:48:42;37.35;;;18.52;;
20619;SDS011;10469;42.720;23.252;2023-02-15T08:51:09;32.40;;;18.55;;
20619;SDS011;10469;42.720;23.252;2023-02-15T08:53:38;30.15;;;18.48;;
20619;SDS011;10469;42.720;23.252;2023-02-15T08:56:05;25.15;;;17.73;;
20619;SDS011;10469;42.720;23.252;2023-02-15T08:58:31;27.55;;;18.25;;
20619;SDS011;10469;42.720;23.252;2023-02-15T09:00:57;26.23;;;16.83;;
20619;SDS011;10469;42.720;23.252;2023-02-15T09:03:22;35.40;;;17.85;;
20619;SDS011;10469;42.720;23.252;2023-02-15T09:05:48;28.60;;;17.00;;
20619;SDS011;10469;42.720;23.252;2023-02-15T09:08:14;29.00;;;16.95;;
20619;SDS011;10469;42.720;23.252;2023-02-15T09:10:39;30.85;;;18.80;;
20619;SDS011;10469;42.720;23.252;2023-02-15T09:13:05;31.08;;;17.25;;
20619;SDS011;10469;42.720;23.252;2023-02-15T09:15:30;32.20;;;17.20;;
20619;SDS011;10469;42.720;23.252;2023-02-15T09:17:56;37.03;;;17.38;;
20619;SDS011;10469;42.720;23.252;2023-02-15T09:20:24;48.90;;;18.40;;
20619;SDS011;10469;42.720;23.252;2023-02-15T09:22:51;25.10;;;17.77;;
20619;SDS011;10469;42.720;23.252;2023-02-15T09:25:17;27.52;;;17.30;;
20619;SDS011;10469;42.720;23.252;2023-02-15T09:27:43;30.13;;;18.20;;
20619;SDS011;10469;42.720;23.252;2023-02-15T09:30:08;27.90;;;17.10;;
20619;SDS011;10469;42.720;23.252;2023-02-15T09:32:34;37.25;;;17.95;;
20619;SDS011;10469;42.720;23.252;2023-02-15T09:35:00;33.08;;;18.73;;
20619;SDS011;10469;42.720;23.252;2023-02-15T09:37:25;28.92;;;17.92;;
20619;SDS011;10469;42.720;23.252;2023-02-15T09:39:51;36.15;;;18.05;;
20619;SDS011;10469;42.720;23.252;2023-02-15T09:45:30;33.33;;;18.40;;
20619;SDS011;10469;42.720;23.252;2023-02-15T09:50:50;31.33;;;18.90;;
20619;SDS011;10469;42.720;23.252;2023-02-15T09:53:29;34.25;;;19.40;;
20619;SDS011;10469;42.720;23.252;2023-02-15T09:56:15;26.80;;;18.13;;
20619;SDS011;10469;42.720;23.252;2023-02-15T09:59:01;31.70;;;17.95;;
20619;SDS011;10469;42.720;23.252;2023-02-15T10:09:11;32.67;;;19.83;;
20619;SDS011;10469;42.720;23.252;2023-02-15T10:14:36;27.70;;;18.10;;
20619;SDS011;10469;42.720;23.252;2023-02-15T10:26:19;33.10;;;18.38;;
20619;SDS011;10469;42.720;23.252;2023-02-15T10:28:57;34.38;;;19.17;;
20619;SDS011;10469;42.720;23.252;2023-02-15T10:34:18;29.08;;;19.30;;
20619;SDS011;10469;42.720;23.252;2023-02-15T10:50:58;25.65;;;18.92;;
20619;SDS011;10469;42.720;23.252;2023-02-15T11:07:17;29.17;;;18.95;;
20619;SDS011;10469;42.720;23.252;2023-02-15T11:09:49;24.13;;;19.02;;
20619;SDS011;10469;42.720;23.252;2023-02-15T11:12:26;29.90;;;18.58;;
20619;SDS011;10469;42.720;23.252;2023-02-15T11:17:46;27.42;;;19.90;;
20619;SDS011;10469;42.720;23.252;2023-02-15T11:23:18;33.38;;;22.13;;
20619;SDS011;10469;42.720;23.252;2023-02-15T11:25:52;34.47;;;22.50;;
20619;SDS011;10469;42.720;23.252;2023-02-15T11:28:42;29.67;;;18.95;;
20619;SDS011;10469;42.720;23.252;2023-02-15T11:31:17;34.78;;;21.00;;
20619;SDS011;10469;42.720;23.252;2023-02-15T11:33:51;29.13;;;19.00;;
20619;SDS011;10469;42.720;23.252;2023-02-15T11:36:27;30.13;;;18.83;;
20619;SDS011;10469;42.720;23.252;2023-02-15T11:39:00;29.95;;;18.70;;
20619;SDS011;10469;42.720;23.252;2023-02-15T11:41:34;32.50;;;18.90;;
20619;SDS011;10469;42.720;23.252;2023-02-15T11:44:06;32.50;;;19.75;;
20619;SDS011;10469;42.720;23.252;2023-02-15T11:46:38;25.10;;;19.08;;
20619;SDS011;10469;42.720;23.252;2023-02-15T11:49:10;26.88;;;19.50;;
20619;SDS011;10469;42.720;23.252;2023-02-15T11:51:44;24.50;;;19.02;;
20619;SDS011;10469;42.720;23.252;2023-02-15T11:54:09;26.00;;;18.50;;
20619;SDS011;10469;42.720;23.252;2023-02-15T11:56:35;31.10;;;19.27;;
20619;SDS011;10469;42.720;23.252;2023-02-15T11:59:02;24.50;;;19.40;;
20619;SDS011;10469;42.720;23.252;2023-02-15T12:01:35;28.42;;;19.63;;
20619;SDS011;10469;42.720;23.252;2023-02-15T12:04:20;30.50;;;20.00;;
20619;SDS011;10469;42.720;23.252;2023-02-15T12:07:03;32.92;;;21.35;;
20619;SDS011;10469;42.720;23.252;2023-02-15T12:12:30;28.95;;;19.42;;
20619;SDS011;10469;42.720;23.252;2023-02-15T12:15:02;27.67;;;18.52;;
20619;SDS011;10469;42.720;23.252;2023-02-15T12:17:32;31.20;;;19.95;;
20619;SDS011;10469;42.720;23.252;2023-02-15T12:20:41;34.75;;;19.77;;
20619;SDS011;10469;42.720;23.252;2023-02-15T12:23:00;25.13;;;18.02;;
20619;SDS011;10469;42.720;23.252;2023-02-15T12:25:33;27.05;;;19.67;;
20619;SDS011;10469;42.720;23.252;2023-02-15T12:30:34;29.02;;;19.30;;
20619;SDS011;10469;42.720;23.252;2023-02-15T12:35:39;25.77;;;18.90;;
20619;SDS011;10469;42.720;23.252;2023-02-15T12:38:19;31.20;;;21.00;;
20619;SDS011;10469;42.720;23.252;2023-02-15T12:41:00;29.40;;;21.10;;
20619;SDS011;10469;42.720;23.252;2023-02-15T12:43:36;33.22;;;23.33;;
20619;SDS011;10469;42.720;23.252;2023-02-15T12:48:45;27.40;;;19.83;;
20619;SDS011;10469;42.720;23.252;2023-02-15T12:51:13;30.45;;;20.95;;
20619;SDS011;10469;42.720;23.252;2023-02-15T12:53:40;33.47;;;20.80;;
20619;SDS011;10469;42.720;23.252;2023-02-15T12:56:07;27.15;;;18.50;;
20619;SDS011;10469;42.720;23.252;2023-02-15T12:58:35;28.63;;;18.77;;
20619;SDS011;10469;42.720;23.252;2023-02-15T13:04:01;31.85;;;20.20;;
20619;SDS011;10469;42.720;23.252;2023-02-15T13:06:30;27.17;;;19.20;;
20619;SDS011;10469;42.720;23.252;2023-02-15T13:09:17;30.67;;;19.38;;
20619;SDS011;10469;42.720;23.252;2023-02-15T13:12:15;36.17;;;19.38;;
20619;SDS011;10469;42.720;23.252;2023-02-15T13:14:44;24.52;;;19.00;;
20619;SDS011;10469;42.720;23.252;2023-02-15T13:17:13;29.45;;;18.42;;
20619;SDS011;10469;42.720;23.252;2023-02-15T13:19:49;28.05;;;19.45;;
20619;SDS011;10469;42.720;23.252;2023-02-15T13:22:19;30.17;;;18.65;;
20619;SDS011;10469;42.720;23.252;2023-02-15T13:24:50;30.25;;;19.08;;
20619;SDS011;10469;42.720;23.252;2023-02-15T13:27:20;29.45;;;19.30;;
20619;SDS011;10469;42.720;23.252;2023-02-15T13:29:49;34.55;;;20.25;;
20619;SDS011;10469;42.720;23.252;2023-02-15T13:35:02;33.00;;;20.35;;
20619;SDS011;10469;42.720;23.252;2023-02-15T13:40:46;33.10;;;20.33;;
20619;SDS011;10469;42.720;23.252;2023-02-15T14:10:41;29.10;;;20.05;;
20619;SDS011;10469;42.720;23.252;2023-02-15T14:19:25;33.90;;;20.98;;
20619;SDS011;10469;42.720;23.252;2023-02-15T14:22:41;31.15;;;20.08;;
20619;SDS011;10469;42.720;23.252;2023-02-15T14:25:17;35.92;;;19.65;;
20619;SDS011;10469;42.720;23.252;2023-02-15T14:30:36;33.42;;;20.05;;
20619;SDS011;10469;42.720;23.252;2023-02-15T14:33:30;31.98;;;21.48;;
20619;SDS011;10469;42.720;23.252;2023-02-15T14:35:58;31.08;;;20.35;;
20619;SDS011;10469;42.720;23.252;2023-02-15T14:38:39;33.47;;;20.77;;
20619;SDS011;10469;42.720;23.252;2023-02-15T14:41:21;32.55;;;20.85;;
20619;SDS011;10469;42.720;23.252;2023-02-15T14:46:54;31.85;;;21.08;;
20619;SDS011;10469;42.720;23.252;2023-02-15T14:49:35;34.00;;;22.25;;
20619;SDS011;10469;42.720;23.252;2023-02-15T14:52:06;35.40;;;22.80;;
20619;SDS011;10469;42.720;23.252;2023-02-15T14:59:36;32.33;;;19.92;;
20619;SDS011;10469;42.720;23.252;2023-02-15T15:04:43;39.47;;;22.13;;
20619;SDS011;10469;42.720;23.252;2023-02-15T15:09:48;43.75;;;26.52;;
20619;SDS011;10469;42.720;23.252;2023-02-15T15:14:50;42.53;;;22.90;;
20619;SDS011;10469;42.720;23.252;2023-02-15T15:20:13;40.20;;;21.23;;
20619;SDS011;10469;42.720;23.252;2023-02-15T15:48:23;37.67;;;21.23;;
20619;SDS011;10469;42.720;23.252;2023-02-15T15:50:59;34.35;;;21.63;;
20619;SDS011;10469;42.720;23.252;2023-02-15T15:53:28;34.95;;;21.63;;
20619;SDS011;10469;42.720;23.252;2023-02-15T15:56:01;38.47;;;22.70;;
20619;SDS011;10469;42.720;23.252;2023-02-15T15:58:31;30.52;;;20.38;;
20619;SDS011;10469;42.720;23.252;2023-02-15T16:01:09;37.78;;;22.02;;
20619;SDS011;10469;42.720;23.252;2023-02-15T16:03:47;39.08;;;21.38;;
20619;SDS011;10469;42.720;23.252;2023-02-15T16:06:25;38.17;;;22.55;;
20619;SDS011;10469;42.720;23.252;2023-02-15T16:08:52;43.53;;;24.50;;
20619;SDS011;10469;42.720;23.252;2023-02-15T16:11:19;47.60;;;25.20;;
20619;SDS011;10469;42.720;23.252;2023-02-15T16:13:48;38.35;;;23.33;;
20619;SDS011;10469;42.720;23.252;2023-02-15T16:16:19;40.83;;;23.55;;
20619;SDS011;10469;42.720;23.252;2023-02-15T16:18:46;38.20;;;23.40;;
20619;SDS011;10469;42.720;23.252;2023-02-15T16:21:20;42.60;;;24.17;;
20619;SDS011;10469;42.720;23.252;2023-02-15T16:29:15;39.47;;;23.63;;
20619;SDS011;10469;42.720;23.252;2023-02-15T16:31:43;43.50;;;25.05;;
20619;SDS011;10469;42.720;23.252;2023-02-15T16:34:25;43.90;;;25.27;;
20619;SDS011;10469;42.720;23.252;2023-02-15T16:37:11;44.33;;;27.00;;
20619;SDS011;10469;42.720;23.252;2023-02-15T16:39:40;40.53;;;25.08;;
20619;SDS011;10469;42.720;23.252;2023-02-15T16:42:07;43.47;;;26.13;;
20619;SDS011;10469;42.720;23.252;2023-02-15T16:44:34;42.65;;;25.77;;
20619;SDS011;10469;42.720;23.252;2023-02-15T16:47:00;42.50;;;25.45;;
20619;SDS011;10469;42.720;23.252;2023-02-15T16:49:27;40.92;;;24.33;;
20619;SDS011;10469;42.720;23.252;2023-02-15T16:52:01;47.17;;;27.63;;
20619;SDS011;10469;42.720;23.252;2023-02-15T16:54:30;42.40;;;25.48;;
20619;SDS011;10469;42.720;23.252;2023-02-15T16:56:59;37.08;;;24.85;;
20619;SDS011;10469;42.720;23.252;2023-02-15T17:02:00;46.10;;;24.15;;
20619;SDS011;10469;42.720;23.252;2023-02-15T17:04:30;39.90;;;24.70;;
20619;SDS011;10469;42.720;23.252;2023-02-15T17:07:13;45.80;;;25.80;;
20619;SDS011;10469;42.720;23.252;2023-02-15T17:09:49;44.60;;;27.77;;
20619;SDS011;10469;42.720;23.252;2023-02-15T17:15:28;41.92;;;24.38;;
20619;SDS011;10469;42.720;23.252;2023-02-15T17:20:38;43.42;;;25.30;;
20619;SDS011;10469;42.720;23.252;2023-02-15T17:23:15;47.80;;;26.75;;
20619;SDS011;10469;42.720;23.252;2023-02-15T17:26:00;50.50;;;27.50;;
20619;SDS011;10469;42.720;23.252;2023-02-15T17:28:35;56.60;;;30.10;;
20619;SDS011;10469;42.720;23.252;2023-02-15T17:31:01;54.22;;;30.48;;
20619;SDS011;10469;42.720;23.252;2023-02-15T17:36:04;57.67;;;30.85;;
20619;SDS011;10469;42.720;23.252;2023-02-15T17:38:40;54.88;;;31.80;;
20619;SDS011;10469;42.720;23.252;2023-02-15T17:41:29;53.92;;;30.45;;
20619;SDS011;10469;42.720;23.252;2023-02-15T17:43:56;53.22;;;30.17;;
20619;SDS011;10469;42.720;23.252;2023-02-15T17:46:22;57.53;;;30.27;;
20619;SDS011;10469;42.720;23.252;2023-02-15T17:48:51;55.83;;;30.85;;
20619;SDS011;10469;42.720;23.252;2023-02-15T17:51:19;51.80;;;30.02;;
20619;SDS011;10469;42.720;23.252;2023-02-15T17:53:45;52.35;;;30.67;;
20619;SDS011;10469;42.720;23.252;2023-02-15T17:56:34;50.15;;;27.85;;
20619;SDS011;10469;42.720;23.252;2023-02-15T17:59:01;50.78;;;27.50;;
20619;SDS011;10469;42.720;23.252;2023-02-15T18:01:31;38.38;;;23.70;;
20619;SDS011;10469;42.720;23.252;2023-02-15T18:04:16;43.50;;;24.88;;